sensor_id;sensor_type;location;lat;lon;timestamp;P1;durP1;ratioP1;P2;durP2;ratioP2
26588;SDS011;14235;48.532;8.722;2024-01-15T00:01:28;17.97;;;9.60;;
26588;SDS011;14235;48.532;8.722;2024-01-15T00:03:54;16.57;;;9.83;;
26588;SDS011;14235;48.532;8.722;2024-01-15T00:06:20;16.27;;;9.43;;
26588;SDS011;14235;48.532;8.722;2024-01-15T00:08:46;17.60;;;9.80;;
26588;SDS011;14235;48.532;8.722;2024-01-15T00:11:11;15.83;;;9.90;;
26588;SDS011;14235;48.532;8.722;2024-01-15T00:13:37;15.13;;;8.70;;
26588;SDS011;14235;48.532;8.722;2024-01-15T00:16:04;17.17;;;9.93;;
26588;SDS011;14235;48.532;8.722;2024-01-15T00:18:30;16.80;;;9.40;;
26588;SDS011;14235;48.532;8.722;2024-01-15T00:20:55;16.50;;;8.93;;
26588;SDS011;14235;48.532;8.722;2024-01-15T00:23:22;18.47;;;9.73;;
26588;SDS011;14235;48.532;8.722;2024-01-15T00:25:47;17.97;;;9.93;;
26588;SDS011;14235;48.532;8.722;2024-01-15T00:28:13;17.60;;;9.63;;
26588;SDS011;14235;48.532;8.722;2024-01-15T00:30:39;15.50;;;9.60;;
26588;SDS011;14235;48.532;8.722;2024-01-15T00:33:04;17.90;;;9.97;;
26588;SDS011;14235;48.532;8.722;2024-01-15T00:35:30;15.97;;;9.17;;
26588;SDS011;14235;48.532;8.722;2024-01-15T00:37:55;15.80;;;9.43;;
26588;SDS011;14235;48.532;8.722;2024-01-15T00:40:21;17.77;;;9.03;;
26588;SDS011;14235;48.532;8.722;2024-01-15T00:42:46;16.80;;;8.57;;
26588;SDS011;14235;48.532;8.722;2024-01-15T00:45:12;16.60;;;9.67;;
26588;SDS011;14235;48.532;8.722;2024-01-15T00:47:38;15.30;;;9.40;;
26588;SDS011;14235;48.532;8.722;2024-01-15T00:50:03;16.53;;;8.60;;
26588;SDS011;14235;48.532;8.722;2024-01-15T00:52:29;17.83;;;9.20;;
26588;SDS011;14235;48.532;8.722;2024-01-15T00:54:55;14.80;;;8.63;;
26588;SDS011;14235;48.532;8.722;2024-01-15T00:57:20;14.47;;;8.40;;
26588;SDS011;14235;48.532;8.722;2024-01-15T00:59:46;15.20;;;8.80;;
26588;SDS011;14235;48.532;8.722;2024-01-15T01:02:13;16.40;;;8.93;;
26588;SDS011;14235;48.532;8.722;2024-01-15T01:04:38;15.30;;;8.10;;
26588;SDS011;14235;48.532;8.722;2024-01-15T01:07:04;14.67;;;8.37;;
26588;SDS011;14235;48.532;8.722;2024-01-15T01:09:29;15.17;;;7.60;;
26588;SDS011;14235;48.532;8.722;2024-01-15T01:11:55;14.00;;;7.90;;
26588;SDS011;14235;48.532;8.722;2024-01-15T01:14:21;14.23;;;8.20;;
26588;SDS011;14235;48.532;8.722;2024-01-15T01:16:47;14.90;;;7.20;;
26588;SDS011;14235;48.532;8.722;2024-01-15T01:19:12;13.67;;;7.63;;
26588;SDS011;14235;48.532;8.722;2024-01-15T01:21:38;15.90;;;8.10;;
26588;SDS011;14235;48.532;8.722;2024-01-15T01:24:04;14.23;;;7.20;;
26588;SDS011;14235;48.532;8.722;2024-01-15T01:26:30;12.37;;;7.33;;
26588;SDS011;14235;48.532;8.722;2024-01-15T01:28:56;12.27;;;7.23;;
26588;SDS011;14235;48.532;8.722;2024-01-15T01:31:22;15.77;;;8.17;;
26588;SDS011;14235;48.532;8.722;2024-01-15T01:33:48;14.13;;;7.57;;
26588;SDS011;14235;48.532;8.722;2024-01-15T01:36:14;14.27;;;7.67;;
26588;SDS011;14235;48.532;8.722;2024-01-15T01:38:40;15.73;;;6.90;;
26588;SDS011;14235;48.532;8.722;2024-01-15T01:41:05;13.43;;;7.43;;
26588;SDS011;14235;48.532;8.722;2024-01-15T01:43:31;13.17;;;7.30;;
26588;SDS011;14235;48.532;8.722;2024-01-15T01:45:57;14.30;;;8.23;;
26588;SDS011;14235;48.532;8.722;2024-01-15T01:48:26;13.33;;;7.33;;
26588;SDS011;14235;48.532;8.722;2024-01-15T01:50:57;15.60;;;8.20;;
26588;SDS011;14235;48.532;8.722;2024-01-15T01:53:24;18.20;;;7.70;;
26588;SDS011;14235;48.532;8.722;2024-01-15T01:55:51;11.93;;;6.90;;
26588;SDS011;14235;48.532;8.722;2024-01-15T01:58:18;12.90;;;7.40;;
26588;SDS011;14235;48.532;8.722;2024-01-15T02:00:45;16.00;;;7.70;;
26588;SDS011;14235;48.532;8.722;2024-01-15T02:03:11;14.23;;;7.20;;
26588;SDS011;14235;48.532;8.722;2024-01-15T02:05:37;14.17;;;7.43;;
26588;SDS011;14235;48.532;8.722;2024-01-15T02:08:05;14.50;;;7.50;;
26588;SDS011;14235;48.532;8.722;2024-01-15T02:10:30;15.40;;;8.00;;
26588;SDS011;14235;48.532;8.722;2024-01-15T02:12:56;16.07;;;7.90;;
26588;SDS011;14235;48.532;8.722;2024-01-15T02:15:22;13.60;;;7.57;;
26588;SDS011;14235;48.532;8.722;2024-01-15T02:17:57;17.40;;;8.80;;
26588;SDS011;14235;48.532;8.722;2024-01-15T02:20:26;13.00;;;7.50;;
26588;SDS011;14235;48.532;8.722;2024-01-15T02:22:52;14.20;;;7.57;;
26588;SDS011;14235;48.532;8.722;2024-01-15T02:25:18;13.10;;;8.07;;
26588;SDS011;14235;48.532;8.722;2024-01-15T02:27:44;12.73;;;7.73;;
26588;SDS011;14235;48.532;8.722;2024-01-15T02:30:11;11.17;;;7.13;;
26588;SDS011;14235;48.532;8.722;2024-01-15T02:32:37;13.23;;;7.97;;
26588;SDS011;14235;48.532;8.722;2024-01-15T02:35:03;14.37;;;8.10;;
26588;SDS011;14235;48.532;8.722;2024-01-15T02:37:29;15.50;;;8.20;;
26588;SDS011;14235;48.532;8.722;2024-01-15T02:39:54;17.47;;;8.80;;
26588;SDS011;14235;48.532;8.722;2024-01-15T02:42:20;17.73;;;8.57;;
26588;SDS011;14235;48.532;8.722;2024-01-15T02:44:55;16.77;;;8.53;;
26588;SDS011;14235;48.532;8.722;2024-01-15T02:47:22;16.33;;;8.37;;
26588;SDS011;14235;48.532;8.722;2024-01-15T02:49:48;15.10;;;8.07;;
26588;SDS011;14235;48.532;8.722;2024-01-15T02:52:14;13.80;;;7.90;;
26588;SDS011;14235;48.532;8.722;2024-01-15T02:54:40;17.83;;;9.17;;
26588;SDS011;14235;48.532;8.722;2024-01-15T02:57:05;19.80;;;9.53;;
26588;SDS011;14235;48.532;8.722;2024-01-15T02:59:31;15.17;;;8.37;;
26588;SDS011;14235;48.532;8.722;2024-01-15T03:01:56;18.50;;;9.57;;
26588;SDS011;14235;48.532;8.722;2024-01-15T03:04:22;16.50;;;8.30;;
26588;SDS011;14235;48.532;8.722;2024-01-15T03:06:47;18.77;;;9.30;;
26588;SDS011;14235;48.532;8.722;2024-01-15T03:09:13;17.00;;;8.97;;
26588;SDS011;14235;48.532;8.722;2024-01-15T03:11:39;16.43;;;9.13;;
26588;SDS011;14235;48.532;8.722;2024-01-15T03:14:04;14.73;;;8.20;;
26588;SDS011;14235;48.532;8.722;2024-01-15T03:16:30;16.97;;;8.50;;
26588;SDS011;14235;48.532;8.722;2024-01-15T03:18:56;15.07;;;8.53;;
26588;SDS011;14235;48.532;8.722;2024-01-15T03:21:21;17.77;;;9.07;;
26588;SDS011;14235;48.532;8.722;2024-01-15T03:23:47;16.13;;;8.63;;
26588;SDS011;14235;48.532;8.722;2024-01-15T03:26:12;16.53;;;8.40;;
26588;SDS011;14235;48.532;8.722;2024-01-15T03:28:38;16.63;;;8.63;;
26588;SDS011;14235;48.532;8.722;2024-01-15T03:31:03;16.60;;;8.73;;
26588;SDS011;14235;48.532;8.722;2024-01-15T03:33:29;17.07;;;9.10;;
26588;SDS011;14235;48.532;8.722;2024-01-15T03:35:55;13.60;;;8.20;;
26588;SDS011;14235;48.532;8.722;2024-01-15T03:38:22;15.80;;;8.87;;
26588;SDS011;14235;48.532;8.722;2024-01-15T03:40:48;16.53;;;8.57;;
26588;SDS011;14235;48.532;8.722;2024-01-15T03:43:13;17.40;;;8.87;;
26588;SDS011;14235;48.532;8.722;2024-01-15T03:45:39;14.60;;;8.30;;
26588;SDS011;14235;48.532;8.722;2024-01-15T03:48:04;17.30;;;8.07;;
26588;SDS011;14235;48.532;8.722;2024-01-15T03:50:30;17.60;;;9.57;;
26588;SDS011;14235;48.532;8.722;2024-01-15T03:52:56;20.10;;;9.23;;
26588;SDS011;14235;48.532;8.722;2024-01-15T03:55:21;19.03;;;8.93;;
26588;SDS011;14235;48.532;8.722;2024-01-15T03:57:47;18.43;;;9.87;;
26588;SDS011;14235;48.532;8.722;2024-01-15T04:00:14;19.10;;;9.87;;
26588;SDS011;14235;48.532;8.722;2024-01-15T04:02:42;16.60;;;9.43;;
26588;SDS011;14235;48.532;8.722;2024-01-15T04:05:07;19.17;;;10.70;;
26588;SDS011;14235;48.532;8.722;2024-01-15T04:07:33;19.33;;;10.53;;
26588;SDS011;14235;48.532;8.722;2024-01-15T04:09:58;20.60;;;10.10;;
26588;SDS011;14235;48.532;8.722;2024-01-15T04:12:24;20.03;;;9.73;;
26588;SDS011;14235;48.532;8.722;2024-01-15T04:14:50;20.30;;;10.23;;
26588;SDS011;14235;48.532;8.722;2024-01-15T04:17:15;19.13;;;9.63;;
26588;SDS011;14235;48.532;8.722;2024-01-15T04:19:43;18.20;;;10.07;;
26588;SDS011;14235;48.532;8.722;2024-01-15T04:22:09;16.60;;;9.23;;
26588;SDS011;14235;48.532;8.722;2024-01-15T04:24:34;18.10;;;9.47;;
26588;SDS011;14235;48.532;8.722;2024-01-15T04:27:00;19.27;;;9.90;;
26588;SDS011;14235;48.532;8.722;2024-01-15T04:29:25;19.13;;;9.70;;
26588;SDS011;14235;48.532;8.722;2024-01-15T04:31:51;17.07;;;9.33;;
26588;SDS011;14235;48.532;8.722;2024-01-15T04:34:18;19.37;;;10.47;;
26588;SDS011;14235;48.532;8.722;2024-01-15T04:36:43;16.40;;;9.03;;
26588;SDS011;14235;48.532;8.722;2024-01-15T04:39:09;18.23;;;9.37;;
26588;SDS011;14235;48.532;8.722;2024-01-15T04:41:35;16.13;;;8.67;;
26588;SDS011;14235;48.532;8.722;2024-01-15T04:44:01;18.07;;;8.97;;
26588;SDS011;14235;48.532;8.722;2024-01-15T04:46:27;16.67;;;9.33;;
26588;SDS011;14235;48.532;8.722;2024-01-15T04:48:52;16.07;;;8.93;;
26588;SDS011;14235;48.532;8.722;2024-01-15T04:51:18;17.73;;;9.23;;
26588;SDS011;14235;48.532;8.722;2024-01-15T04:53:44;16.20;;;9.10;;
26588;SDS011;14235;48.532;8.722;2024-01-15T04:56:09;14.00;;;8.00;;
26588;SDS011;14235;48.532;8.722;2024-01-15T04:58:35;15.30;;;8.20;;
26588;SDS011;14235;48.532;8.722;2024-01-15T05:01:00;15.13;;;8.47;;
26588;SDS011;14235;48.532;8.722;2024-01-15T05:03:26;16.97;;;9.00;;
26588;SDS011;14235;48.532;8.722;2024-01-15T05:05:52;11.43;;;7.43;;
26588;SDS011;14235;48.532;8.722;2024-01-15T05:08:17;15.77;;;7.83;;
26588;SDS011;14235;48.532;8.722;2024-01-15T05:10:43;15.13;;;8.70;;
26588;SDS011;14235;48.532;8.722;2024-01-15T05:13:08;12.53;;;7.37;;
26588;SDS011;14235;48.532;8.722;2024-01-15T05:15:34;14.47;;;7.83;;
26588;SDS011;14235;48.532;8.722;2024-01-15T05:17:59;11.90;;;6.97;;
26588;SDS011;14235;48.532;8.722;2024-01-15T05:20:25;14.77;;;8.27;;
26588;SDS011;14235;48.532;8.722;2024-01-15T05:22:50;17.03;;;7.87;;
26588;SDS011;14235;48.532;8.722;2024-01-15T05:25:16;13.90;;;7.80;;
26588;SDS011;14235;48.532;8.722;2024-01-15T05:27:41;16.17;;;8.80;;
26588;SDS011;14235;48.532;8.722;2024-01-15T05:30:07;13.93;;;8.20;;
26588;SDS011;14235;48.532;8.722;2024-01-15T05:32:33;14.70;;;8.90;;
26588;SDS011;14235;48.532;8.722;2024-01-15T05:34:58;14.20;;;8.40;;
26588;SDS011;14235;48.532;8.722;2024-01-15T05:37:24;17.70;;;10.40;;
26588;SDS011;14235;48.532;8.722;2024-01-15T05:39:49;17.70;;;10.20;;
26588;SDS011;14235;48.532;8.722;2024-01-15T05:42:15;18.70;;;10.40;;
26588;SDS011;14235;48.532;8.722;2024-01-15T05:44:40;15.77;;;9.60;;
26588;SDS011;14235;48.532;8.722;2024-01-15T05:47:06;18.97;;;10.97;;
26588;SDS011;14235;48.532;8.722;2024-01-15T05:49:32;15.70;;;8.63;;
26588;SDS011;14235;48.532;8.722;2024-01-15T05:51:58;14.33;;;8.30;;
26588;SDS011;14235;48.532;8.722;2024-01-15T05:54:23;14.77;;;8.30;;
26588;SDS011;14235;48.532;8.722;2024-01-15T05:56:49;19.17;;;8.77;;
26588;SDS011;14235;48.532;8.722;2024-01-15T05:59:14;16.10;;;9.20;;
26588;SDS011;14235;48.532;8.722;2024-01-15T06:01:40;15.10;;;8.50;;
26588;SDS011;14235;48.532;8.722;2024-01-15T06:04:06;14.77;;;8.73;;
26588;SDS011;14235;48.532;8.722;2024-01-15T06:06:31;15.60;;;8.77;;
26588;SDS011;14235;48.532;8.722;2024-01-15T06:08:57;15.03;;;8.93;;
26588;SDS011;14235;48.532;8.722;2024-01-15T06:11:29;15.30;;;8.80;;
26588;SDS011;14235;48.532;8.722;2024-01-15T06:13:55;15.93;;;8.83;;
26588;SDS011;14235;48.532;8.722;2024-01-15T06:16:20;14.60;;;8.60;;
26588;SDS011;14235;48.532;8.722;2024-01-15T06:18:46;13.73;;;8.43;;
26588;SDS011;14235;48.532;8.722;2024-01-15T06:21:12;14.10;;;8.43;;
26588;SDS011;14235;48.532;8.722;2024-01-15T06:23:39;14.93;;;8.60;;
26588;SDS011;14235;48.532;8.722;2024-01-15T06:26:05;15.53;;;8.63;;
26588;SDS011;14235;48.532;8.722;2024-01-15T06:28:30;14.70;;;8.10;;
26588;SDS011;14235;48.532;8.722;2024-01-15T06:30:56;15.40;;;8.30;;
26588;SDS011;14235;48.532;8.722;2024-01-15T06:33:23;12.03;;;7.83;;
26588;SDS011;14235;48.532;8.722;2024-01-15T06:35:48;13.87;;;7.87;;
26588;SDS011;14235;48.532;8.722;2024-01-15T06:38:15;15.17;;;8.17;;
26588;SDS011;14235;48.532;8.722;2024-01-15T06:40:40;10.43;;;7.23;;
26588;SDS011;14235;48.532;8.722;2024-01-15T06:43:10;11.37;;;7.10;;
26588;SDS011;14235;48.532;8.722;2024-01-15T06:45:36;12.43;;;7.40;;
26588;SDS011;14235;48.532;8.722;2024-01-15T06:48:02;13.23;;;7.33;;
26588;SDS011;14235;48.532;8.722;2024-01-15T06:50:27;11.93;;;7.33;;
26588;SDS011;14235;48.532;8.722;2024-01-15T06:52:53;12.37;;;7.20;;
26588;SDS011;14235;48.532;8.722;2024-01-15T06:55:19;10.47;;;6.83;;
26588;SDS011;14235;48.532;8.722;2024-01-15T06:57:44;12.30;;;7.20;;
26588;SDS011;14235;48.532;8.722;2024-01-15T07:00:10;13.33;;;7.40;;
26588;SDS011;14235;48.532;8.722;2024-01-15T07:02:36;10.00;;;6.90;;
26588;SDS011;14235;48.532;8.722;2024-01-15T07:05:01;11.50;;;6.83;;
26588;SDS011;14235;48.532;8.722;2024-01-15T07:07:30;11.60;;;6.87;;
26588;SDS011;14235;48.532;8.722;2024-01-15T07:09:55;12.67;;;7.10;;
26588;SDS011;14235;48.532;8.722;2024-01-15T07:12:21;10.50;;;6.30;;
26588;SDS011;14235;48.532;8.722;2024-01-15T07:14:47;11.40;;;6.77;;
26588;SDS011;14235;48.532;8.722;2024-01-15T07:17:14;12.17;;;7.37;;
26588;SDS011;14235;48.532;8.722;2024-01-15T07:19:39;9.90;;;6.33;;
26588;SDS011;14235;48.532;8.722;2024-01-15T07:22:05;12.43;;;6.63;;
26588;SDS011;14235;48.532;8.722;2024-01-15T07:24:31;9.97;;;5.93;;
26588;SDS011;14235;48.532;8.722;2024-01-15T07:26:59;11.20;;;6.57;;
26588;SDS011;14235;48.532;8.722;2024-01-15T07:29:24;10.30;;;6.57;;
26588;SDS011;14235;48.532;8.722;2024-01-15T07:31:50;9.30;;;6.00;;
26588;SDS011;14235;48.532;8.722;2024-01-15T07:34:16;10.43;;;6.67;;
26588;SDS011;14235;48.532;8.722;2024-01-15T07:36:45;11.50;;;7.27;;
26588;SDS011;14235;48.532;8.722;2024-01-15T07:39:11;10.90;;;5.73;;
26588;SDS011;14235;48.532;8.722;2024-01-15T07:41:36;11.33;;;6.60;;
26588;SDS011;14235;48.532;8.722;2024-01-15T07:44:02;11.07;;;6.57;;
26588;SDS011;14235;48.532;8.722;2024-01-15T07:46:28;10.07;;;6.10;;
26588;SDS011;14235;48.532;8.722;2024-01-15T07:48:53;10.70;;;6.73;;
26588;SDS011;14235;48.532;8.722;2024-01-15T07:51:22;8.40;;;5.70;;
26588;SDS011;14235;48.532;8.722;2024-01-15T07:53:48;8.83;;;5.83;;
26588;SDS011;14235;48.532;8.722;2024-01-15T07:56:14;9.70;;;5.73;;
26588;SDS011;14235;48.532;8.722;2024-01-15T07:58:39;9.10;;;6.33;;
26588;SDS011;14235;48.532;8.722;2024-01-15T08:01:05;12.73;;;6.40;;
26588;SDS011;14235;48.532;8.722;2024-01-15T08:03:31;11.03;;;6.80;;
26588;SDS011;14235;48.532;8.722;2024-01-15T08:05:56;12.63;;;6.60;;
26588;SDS011;14235;48.532;8.722;2024-01-15T08:08:24;8.83;;;5.50;;
26588;SDS011;14235;48.532;8.722;2024-01-15T08:10:51;10.70;;;5.80;;
26588;SDS011;14235;48.532;8.722;2024-01-15T08:13:17;10.80;;;6.17;;
26588;SDS011;14235;48.532;8.722;2024-01-15T08:15:43;9.30;;;5.60;;
26588;SDS011;14235;48.532;8.722;2024-01-15T08:18:08;10.20;;;6.10;;
26588;SDS011;14235;48.532;8.722;2024-01-15T08:20:34;11.23;;;6.07;;
26588;SDS011;14235;48.532;8.722;2024-01-15T08:23:00;10.50;;;5.80;;
26588;SDS011;14235;48.532;8.722;2024-01-15T08:25:25;9.03;;;5.73;;
26588;SDS011;14235;48.532;8.722;2024-01-15T08:27:51;7.73;;;5.33;;
26588;SDS011;14235;48.532;8.722;2024-01-15T08:30:17;9.50;;;5.00;;
26588;SDS011;14235;48.532;8.722;2024-01-15T08:32:43;7.80;;;5.37;;
26588;SDS011;14235;48.532;8.722;2024-01-15T08:35:10;7.40;;;5.33;;
26588;SDS011;14235;48.532;8.722;2024-01-15T08:37:35;8.67;;;5.27;;
26588;SDS011;14235;48.532;8.722;2024-01-15T08:40:01;10.50;;;6.23;;
26588;SDS011;14235;48.532;8.722;2024-01-15T08:42:28;11.03;;;6.13;;
26588;SDS011;14235;48.532;8.722;2024-01-15T08:44:54;9.23;;;5.30;;
26588;SDS011;14235;48.532;8.722;2024-01-15T08:47:19;9.10;;;5.30;;
26588;SDS011;14235;48.532;8.722;2024-01-15T08:49:45;8.00;;;4.93;;
26588;SDS011;14235;48.532;8.722;2024-01-15T08:52:11;8.73;;;5.17;;
26588;SDS011;14235;48.532;8.722;2024-01-15T08:54:36;9.50;;;5.70;;
26588;SDS011;14235;48.532;8.722;2024-01-15T08:57:02;10.43;;;6.40;;
26588;SDS011;14235;48.532;8.722;2024-01-15T08:59:28;11.20;;;6.60;;
26588;SDS011;14235;48.532;8.722;2024-01-15T09:01:53;11.30;;;6.10;;
26588;SDS011;14235;48.532;8.722;2024-01-15T09:04:22;10.33;;;6.47;;
26588;SDS011;14235;48.532;8.722;2024-01-15T09:06:48;9.13;;;5.33;;
26588;SDS011;14235;48.532;8.722;2024-01-15T09:09:14;9.57;;;5.77;;
26588;SDS011;14235;48.532;8.722;2024-01-15T09:11:40;10.13;;;5.73;;
26588;SDS011;14235;48.532;8.722;2024-01-15T09:14:06;9.70;;;5.20;;
26588;SDS011;14235;48.532;8.722;2024-01-15T09:16:33;8.33;;;5.13;;
26588;SDS011;14235;48.532;8.722;2024-01-15T09:18:58;8.70;;;5.07;;
26588;SDS011;14235;48.532;8.722;2024-01-15T09:21:24;9.37;;;5.70;;
26588;SDS011;14235;48.532;8.722;2024-01-15T09:23:50;8.37;;;5.07;;
26588;SDS011;14235;48.532;8.722;2024-01-15T09:26:16;8.47;;;5.30;;
26588;SDS011;14235;48.532;8.722;2024-01-15T09:28:42;9.50;;;5.63;;
26588;SDS011;14235;48.532;8.722;2024-01-15T09:31:07;7.47;;;4.70;;
26588;SDS011;14235;48.532;8.722;2024-01-15T09:33:33;10.67;;;5.20;;
26588;SDS011;14235;48.532;8.722;2024-01-15T09:36:02;8.50;;;4.97;;
26588;SDS011;14235;48.532;8.722;2024-01-15T09:38:32;9.20;;;5.03;;
26588;SDS011;14235;48.532;8.722;2024-01-15T09:40:57;11.13;;;5.30;;
26588;SDS011;14235;48.532;8.722;2024-01-15T09:43:23;8.13;;;5.03;;
26588;SDS011;14235;48.532;8.722;2024-01-15T09:45:49;8.87;;;5.03;;
26588;SDS011;14235;48.532;8.722;2024-01-15T09:48:15;7.77;;;5.03;;
26588;SDS011;14235;48.532;8.722;2024-01-15T09:50:41;6.70;;;4.70;;
26588;SDS011;14235;48.532;8.722;2024-01-15T09:53:08;7.87;;;4.57;;
26588;SDS011;14235;48.532;8.722;2024-01-15T09:55:35;9.07;;;4.53;;
26588;SDS011;14235;48.532;8.722;2024-01-15T09:58:02;7.27;;;4.50;;
26588;SDS011;14235;48.532;8.722;2024-01-15T10:00:28;7.00;;;4.87;;
26588;SDS011;14235;48.532;8.722;2024-01-15T10:02:57;7.13;;;4.60;;
26588;SDS011;14235;48.532;8.722;2024-01-15T10:05:25;9.00;;;5.37;;
26588;SDS011;14235;48.532;8.722;2024-01-15T10:07:51;8.20;;;4.80;;
26588;SDS011;14235;48.532;8.722;2024-01-15T10:10:19;7.67;;;4.70;;
26588;SDS011;14235;48.532;8.722;2024-01-15T10:12:46;7.23;;;4.97;;
26588;SDS011;14235;48.532;8.722;2024-01-15T10:15:12;7.17;;;4.47;;
26588;SDS011;14235;48.532;8.722;2024-01-15T10:17:38;6.77;;;4.23;;
26588;SDS011;14235;48.532;8.722;2024-01-15T10:20:08;7.33;;;4.60;;
26588;SDS011;14235;48.532;8.722;2024-01-15T10:22:35;7.23;;;4.33;;
26588;SDS011;14235;48.532;8.722;2024-01-15T10:25:04;6.40;;;4.30;;
26588;SDS011;14235;48.532;8.722;2024-01-15T10:27:30;7.17;;;4.23;;
26588;SDS011;14235;48.532;8.722;2024-01-15T10:29:59;6.57;;;4.47;;
26588;SDS011;14235;48.532;8.722;2024-01-15T10:32:25;6.60;;;4.00;;
26588;SDS011;14235;48.532;8.722;2024-01-15T10:34:52;6.87;;;4.50;;
26588;SDS011;14235;48.532;8.722;2024-01-15T10:37:18;6.60;;;4.47;;
26588;SDS011;14235;48.532;8.722;2024-01-15T10:39:44;8.47;;;4.87;;
26588;SDS011;14235;48.532;8.722;2024-01-15T10:42:11;9.43;;;5.17;;
26588;SDS011;14235;48.532;8.722;2024-01-15T10:44:37;8.20;;;4.90;;
26588;SDS011;14235;48.532;8.722;2024-01-15T10:47:03;6.77;;;4.50;;
26588;SDS011;14235;48.532;8.722;2024-01-15T10:49:29;6.33;;;4.57;;
26588;SDS011;14235;48.532;8.722;2024-01-15T10:51:56;6.23;;;4.57;;
26588;SDS011;14235;48.532;8.722;2024-01-15T10:54:22;5.93;;;4.33;;
26588;SDS011;14235;48.532;8.722;2024-01-15T10:56:49;8.70;;;4.50;;
26588;SDS011;14235;48.532;8.722;2024-01-15T10:59:16;7.63;;;4.87;;
26588;SDS011;14235;48.532;8.722;2024-01-15T11:01:42;8.07;;;5.33;;
26588;SDS011;14235;48.532;8.722;2024-01-15T11:04:08;6.47;;;4.83;;
26588;SDS011;14235;48.532;8.722;2024-01-15T11:06:48;9.20;;;5.30;;
26588;SDS011;14235;48.532;8.722;2024-01-15T11:09:15;8.23;;;4.83;;
26588;SDS011;14235;48.532;8.722;2024-01-15T11:11:43;7.87;;;5.60;;
26588;SDS011;14235;48.532;8.722;2024-01-15T11:14:29;6.73;;;5.10;;
26588;SDS011;14235;48.532;8.722;2024-01-15T11:17:03;8.23;;;5.23;;
26588;SDS011;14235;48.532;8.722;2024-01-15T11:22:09;7.27;;;4.93;;
26588;SDS011;14235;48.532;8.722;2024-01-15T11:24:40;7.57;;;5.03;;
26588;SDS011;14235;48.532;8.722;2024-01-15T11:27:06;7.77;;;4.80;;
26588;SDS011;14235;48.532;8.722;2024-01-15T11:29:34;7.00;;;5.20;;
26588;SDS011;14235;48.532;8.722;2024-01-15T11:35:02;7.90;;;5.17;;
26588;SDS011;14235;48.532;8.722;2024-01-15T11:37:27;7.80;;;5.17;;
26588;SDS011;14235;48.532;8.722;2024-01-15T11:40:13;7.87;;;5.63;;
26588;SDS011;14235;48.532;8.722;2024-01-15T11:42:46;8.27;;;4.90;;
26588;SDS011;14235;48.532;8.722;2024-01-15T11:45:18;7.60;;;5.03;;
26588;SDS011;14235;48.532;8.722;2024-01-15T11:50:12;5.97;;;5.10;;
26588;SDS011;14235;48.532;8.722;2024-01-15T11:52:39;8.10;;;5.37;;
26588;SDS011;14235;48.532;8.722;2024-01-15T11:55:10;7.20;;;4.80;;
26588;SDS011;14235;48.532;8.722;2024-01-15T11:57:49;7.73;;;4.87;;
26588;SDS011;14235;48.532;8.722;2024-01-15T12:00:15;6.00;;;4.70;;
26588;SDS011;14235;48.532;8.722;2024-01-15T12:02:42;7.37;;;5.30;;
26588;SDS011;14235;48.532;8.722;2024-01-15T12:05:09;9.03;;;5.33;;
26588;SDS011;14235;48.532;8.722;2024-01-15T12:07:39;7.07;;;4.90;;
26588;SDS011;14235;48.532;8.722;2024-01-15T12:10:09;5.50;;;4.20;;
26588;SDS011;14235;48.532;8.722;2024-01-15T12:15:25;5.43;;;4.23;;
26588;SDS011;14235;48.532;8.722;2024-01-15T12:17:53;5.80;;;4.33;;
26588;SDS011;14235;48.532;8.722;2024-01-15T12:20:22;6.93;;;4.40;;
26588;SDS011;14235;48.532;8.722;2024-01-15T12:22:49;5.73;;;4.20;;
26588;SDS011;14235;48.532;8.722;2024-01-15T12:25:14;6.73;;;4.43;;
26588;SDS011;14235;48.532;8.722;2024-01-15T12:27:40;5.73;;;3.93;;
26588;SDS011;14235;48.532;8.722;2024-01-15T12:30:06;6.07;;;4.40;;
26588;SDS011;14235;48.532;8.722;2024-01-15T12:32:32;5.93;;;4.20;;
26588;SDS011;14235;48.532;8.722;2024-01-15T12:35:00;6.73;;;4.27;;
26588;SDS011;14235;48.532;8.722;2024-01-15T12:37:25;5.07;;;3.83;;
26588;SDS011;14235;48.532;8.722;2024-01-15T12:39:52;5.57;;;4.30;;
26588;SDS011;14235;48.532;8.722;2024-01-15T12:42:19;6.07;;;4.30;;
26588;SDS011;14235;48.532;8.722;2024-01-15T12:44:46;5.07;;;3.77;;
26588;SDS011;14235;48.532;8.722;2024-01-15T12:47:12;5.87;;;4.67;;
26588;SDS011;14235;48.532;8.722;2024-01-15T12:49:38;6.63;;;4.00;;
26588;SDS011;14235;48.532;8.722;2024-01-15T12:52:07;5.23;;;4.13;;
26588;SDS011;14235;48.532;8.722;2024-01-15T12:54:34;4.77;;;3.80;;
26588;SDS011;14235;48.532;8.722;2024-01-15T12:56:59;7.67;;;4.63;;
26588;SDS011;14235;48.532;8.722;2024-01-15T12:59:25;6.43;;;4.23;;
26588;SDS011;14235;48.532;8.722;2024-01-15T13:01:50;6.33;;;4.10;;
26588;SDS011;14235;48.532;8.722;2024-01-15T13:04:23;6.70;;;4.40;;
26588;SDS011;14235;48.532;8.722;2024-01-15T13:06:49;5.13;;;4.10;;
26588;SDS011;14235;48.532;8.722;2024-01-15T13:09:16;5.80;;;4.30;;
26588;SDS011;14235;48.532;8.722;2024-01-15T13:11:42;7.53;;;4.33;;
26588;SDS011;14235;48.532;8.722;2024-01-15T13:14:09;6.20;;;4.33;;
26588;SDS011;14235;48.532;8.722;2024-01-15T13:16:34;5.27;;;3.83;;
26588;SDS011;14235;48.532;8.722;2024-01-15T13:19:00;5.90;;;3.93;;
26588;SDS011;14235;48.532;8.722;2024-01-15T13:21:26;6.17;;;4.33;;
26588;SDS011;14235;48.532;8.722;2024-01-15T13:23:51;5.33;;;4.10;;
26588;SDS011;14235;48.532;8.722;2024-01-15T13:26:17;5.13;;;4.00;;
26588;SDS011;14235;48.532;8.722;2024-01-15T13:28:44;5.60;;;3.70;;
26588;SDS011;14235;48.532;8.722;2024-01-15T13:31:09;5.77;;;3.90;;
26588;SDS011;14235;48.532;8.722;2024-01-15T13:33:35;5.33;;;4.20;;
26588;SDS011;14235;48.532;8.722;2024-01-15T13:36:00;6.63;;;3.95;;
26588;SDS011;14235;48.532;8.722;2024-01-15T13:38:27;4.77;;;3.60;;
26588;SDS011;14235;48.532;8.722;2024-01-15T13:40:56;4.63;;;3.30;;
26588;SDS011;14235;48.532;8.722;2024-01-15T13:43:22;6.07;;;3.77;;
26588;SDS011;14235;48.532;8.722;2024-01-15T13:45:47;5.87;;;3.87;;
26588;SDS011;14235;48.532;8.722;2024-01-15T13:48:14;3.60;;;3.10;;
26588;SDS011;14235;48.532;8.722;2024-01-15T13:50:39;5.03;;;3.47;;
26588;SDS011;14235;48.532;8.722;2024-01-15T13:53:05;3.70;;;3.30;;
26588;SDS011;14235;48.532;8.722;2024-01-15T13:55:31;4.40;;;3.70;;
26588;SDS011;14235;48.532;8.722;2024-01-15T13:57:57;4.73;;;3.43;;
26588;SDS011;14235;48.532;8.722;2024-01-15T14:00:22;3.47;;;2.97;;
26588;SDS011;14235;48.532;8.722;2024-01-15T14:02:48;3.07;;;2.77;;
26588;SDS011;14235;48.532;8.722;2024-01-15T14:05:14;4.83;;;3.53;;
26588;SDS011;14235;48.532;8.722;2024-01-15T14:07:48;3.73;;;3.37;;
26588;SDS011;14235;48.532;8.722;2024-01-15T14:10:14;7.03;;;3.17;;
26588;SDS011;14235;48.532;8.722;2024-01-15T14:12:39;3.93;;;3.00;;
26588;SDS011;14235;48.532;8.722;2024-01-15T14:15:05;3.57;;;3.13;;
26588;SDS011;14235;48.532;8.722;2024-01-15T14:17:31;4.60;;;3.00;;
26588;SDS011;14235;48.532;8.722;2024-01-15T14:19:57;5.40;;;3.50;;
26588;SDS011;14235;48.532;8.722;2024-01-15T14:22:23;5.37;;;4.10;;
26588;SDS011;14235;48.532;8.722;2024-01-15T14:24:48;6.57;;;3.40;;
26588;SDS011;14235;48.532;8.722;2024-01-15T14:27:14;6.30;;;3.70;;
26588;SDS011;14235;48.532;8.722;2024-01-15T14:29:40;3.43;;;3.13;;
26588;SDS011;14235;48.532;8.722;2024-01-15T14:32:06;4.03;;;3.17;;
26588;SDS011;14235;48.532;8.722;2024-01-15T14:34:31;4.80;;;3.00;;
26588;SDS011;14235;48.532;8.722;2024-01-15T14:36:57;2.83;;;2.00;;
26588;SDS011;14235;48.532;8.722;2024-01-15T14:39:23;2.30;;;2.10;;
26588;SDS011;14235;48.532;8.722;2024-01-15T14:41:49;2.43;;;2.03;;
26588;SDS011;14235;48.532;8.722;2024-01-15T14:44:14;2.07;;;1.90;;
26588;SDS011;14235;48.532;8.722;2024-01-15T14:46:40;3.20;;;2.30;;